createdAt,value
2022-11-29T00:01:03.399Z,4.61
2022-11-29T00:03:30.949Z,4.59
2022-11-29T00:06:05.134Z,4.49
2022-11-29T00:08:31.982Z,4.46
2022-11-29T00:11:06.786Z,4.44
2022-11-29T00:13:33.874Z,4.47
2022-11-29T00:16:06.664Z,4.37
2022-11-29T00:18:34.473Z,4.36
2022-11-29T00:21:08.615Z,4.51
2022-11-29T00:23:35.941Z,4.48
2022-11-29T00:26:07.346Z,4.50
2022-11-29T00:28:36.164Z,4.49
2022-11-29T00:31:25.054Z,4.52
2022-11-29T00:33:53.089Z,4.58
2022-11-29T00:36:20.903Z,4.47
2022-11-29T00:38:47.835Z,4.47
2022-11-29T00:41:14.750Z,4.50
2022-11-29T00:43:41.822Z,4.51
2022-11-29T00:46:09.075Z,4.46
2022-11-29T00:48:36.924Z,4.37
2022-11-29T00:51:05.218Z,4.48
2022-11-29T00:53:33.177Z,4.47
2022-11-29T00:56:00.030Z,4.39
2022-11-29T00:58:26.970Z,4.45
2022-11-29T01:00:54.211Z,4.45
2022-11-29T01:03:21.994Z,4.43
2022-11-29T01:05:49.202Z,4.38
2022-11-29T01:08:16.488Z,4.36
2022-11-29T01:10:43.577Z,4.35
2022-11-29T01:13:11.174Z,4.23
2022-11-29T01:15:38.632Z,4.29
2022-11-29T01:18:05.573Z,4.25
2022-11-29T01:20:32.544Z,4.31
2022-11-29T01:22:59.465Z,4.39
2022-11-29T01:25:26.487Z,4.31
2022-11-29T01:27:54.165Z,4.17
2022-11-29T01:30:21.588Z,4.07
2022-11-29T01:32:48.488Z,4.10
2022-11-29T01:35:15.267Z,4.15
2022-11-29T01:37:42.157Z,4.06
2022-11-29T01:40:09.303Z,3.87
2022-11-29T01:42:36.121Z,3.76
2022-11-29T01:45:08.536Z,3.70
2022-11-29T01:47:43.448Z,3.61
2022-11-29T01:50:11.188Z,3.65
2022-11-29T01:52:38.529Z,3.60
2022-11-29T01:55:07.818Z,3.67
2022-11-29T01:57:37.426Z,3.54
2022-11-29T02:00:12.784Z,3.52
2022-11-29T02:02:45.531Z,3.49
2022-11-29T02:05:15.207Z,3.59
2022-11-29T02:07:46.447Z,3.50
2022-11-29T02:10:15.959Z,3.43
2022-11-29T02:13:00.517Z,3.49
2022-11-29T02:15:30.382Z,3.53
2022-11-29T02:18:06.837Z,3.53
2022-11-29T02:20:53.710Z,3.50
2022-11-29T02:23:39.723Z,3.61
2022-11-29T02:26:52.048Z,3.63
2022-11-29T02:29:31.007Z,3.58
2022-11-29T02:32:00.848Z,3.54
2022-11-29T02:34:43.311Z,3.54
2022-11-29T02:37:29.100Z,3.41
2022-11-29T02:40:01.985Z,3.38
2022-11-29T02:42:56.885Z,3.23
2022-11-29T02:46:01.711Z,3.39
2022-11-29T02:48:53.576Z,3.26
2022-11-29T02:51:35.553Z,3.23
2022-11-29T02:54:58.081Z,3.04
2022-11-29T02:57:30.603Z,3.00
2022-11-29T03:00:10.449Z,2.97
2022-11-29T03:02:46.312Z,3.05
2022-11-29T03:05:19.298Z,3.14
2022-11-29T03:08:07.461Z,3.10
2022-11-29T03:10:57.273Z,3.13
2022-11-29T03:13:36.065Z,3.16
2022-11-29T03:16:17.374Z,3.21
2022-11-29T03:19:00.207Z,3.18
2022-11-29T03:21:56.698Z,3.20
2022-11-29T03:24:37.221Z,3.19
2022-11-29T03:27:11.921Z,3.20
2022-11-29T03:29:51.948Z,3.21
2022-11-29T03:32:18.824Z,3.29
2022-11-29T03:35:04.579Z,3.38
2022-11-29T03:37:40.526Z,3.32
2022-11-29T03:40:19.036Z,3.22
2022-11-29T03:42:56.669Z,3.27
2022-11-29T03:45:42.808Z,3.30
2022-11-29T03:48:13.734Z,3.40
2022-11-29T03:51:21.171Z,3.44
2022-11-29T03:53:54.485Z,3.41
2022-11-29T03:56:34.337Z,3.39
2022-11-29T03:59:19.607Z,3.47
2022-11-29T04:01:49.926Z,3.46
2022-11-29T04:04:38.547Z,3.58
2022-11-29T04:07:19.902Z,3.68
2022-11-29T04:10:24.614Z,3.88
2022-11-29T04:13:25.467Z,3.81
2022-11-29T04:16:11.500Z,3.89
2022-11-29T04:19:08.756Z,3.99
2022-11-29T04:22:05.877Z,4.00
2022-11-29T04:24:59.122Z,3.94
2022-11-29T04:27:44.052Z,3.97
2022-11-29T04:30:14.616Z,4.03
2022-11-29T04:32:56.513Z,3.93
2022-11-29T04:35:48.765Z,4.03
2022-11-29T04:38:15.738Z,3.93
2022-11-29T04:41:03.277Z,3.98
2022-11-29T04:43:40.051Z,3.96
2022-11-29T04:46:37.654Z,3.95
2022-11-29T04:49:07.677Z,3.96
2022-11-29T04:51:53.526Z,4.04
2022-11-29T04:54:45.011Z,3.97
2022-11-29T04:57:28.517Z,4.04
2022-11-29T05:00:11.799Z,3.91
2022-11-29T05:02:56.488Z,3.97
2022-11-29T05:05:55.868Z,4.06
2022-11-29T05:08:46.322Z,4.10
2022-11-29T05:11:25.055Z,4.17
2022-11-29T05:14:15.798Z,4.07
2022-11-29T05:17:01.579Z,4.09
2022-11-29T05:19:53.057Z,3.98
2022-11-29T05:22:38.285Z,4.21
2022-11-29T05:25:47.788Z,4.15
2022-11-29T05:28:59.306Z,4.01
2022-11-29T05:31:55.417Z,4.12
2022-11-29T05:34:35.227Z,4.09
2022-11-29T05:37:31.858Z,4.13
2022-11-29T05:40:09.960Z,4.18
2022-11-29T05:43:04.244Z,4.29
2022-11-29T05:45:48.898Z,4.37
2022-11-29T05:48:25.015Z,4.30
2022-11-29T05:51:20.136Z,4.37
2022-11-29T05:54:06.049Z,4.40
2022-11-29T05:56:59.864Z,4.37
2022-11-29T05:59:33.697Z,4.22
2022-11-29T06:02:12.960Z,4.37
2022-11-29T06:05:01.236Z,4.42
2022-11-29T06:07:55.972Z,4.45
2022-11-29T06:10:33.286Z,4.43
2022-11-29T06:13:11.457Z,4.45
2022-11-29T06:16:06.202Z,4.43
2022-11-29T06:18:45.839Z,4.33
2022-11-29T06:21:51.557Z,4.49
2022-11-29T06:24:46.142Z,4.51
2022-11-29T06:27:41.025Z,4.67
2022-11-29T06:30:10.787Z,4.54
2022-11-29T06:32:47.925Z,4.62
2022-11-29T06:35:27.477Z,4.66
2022-11-29T06:37:59.447Z,4.66
2022-11-29T06:40:26.873Z,4.90
2022-11-29T06:42:54.292Z,5.26
2022-11-29T06:45:24.667Z,5.65
2022-11-29T06:48:04.156Z,6.16
2022-11-29T06:50:49.778Z,6.25
2022-11-29T06:53:43.534Z,6.31
2022-11-29T06:56:48.737Z,6.23
2022-11-29T06:59:41.927Z,5.78
2022-11-29T07:02:46.445Z,5.73
2022-11-29T07:05:16.988Z,5.67
2022-11-29T07:07:44.522Z,5.55
2022-11-29T07:10:27.445Z,5.54
2022-11-29T07:12:55.518Z,5.54
2022-11-29T07:15:23.597Z,5.36
2022-11-29T07:18:31.246Z,5.21
2022-11-29T07:21:09.331Z,6.54
2022-11-29T07:23:45.849Z,8.21
2022-11-29T07:26:40.374Z,8.75
2022-11-29T07:29:23.822Z,9.94
2022-11-29T07:32:38.013Z,11.95
2022-11-29T07:35:19.388Z,12.66
2022-11-29T07:38:01.445Z,13.36
2022-11-29T07:40:37.840Z,13.04
2022-11-29T07:43:19.128Z,11.34
2022-11-29T07:45:48.036Z,9.04
2022-11-29T07:48:16.840Z,8.67
2022-11-29T07:51:04.105Z,8.31
2022-11-29T07:53:45.934Z,7.43
2022-11-29T07:56:14.342Z,7.84
2022-11-29T07:58:43.227Z,7.14
2022-11-29T08:01:10.711Z,6.99
2022-11-29T08:03:45.058Z,6.90
2022-11-29T08:06:19.164Z,6.77
2022-11-29T08:11:48.772Z,6.03
2022-11-29T08:20:20.396Z,6.43
2022-11-29T08:26:15.585Z,5.89
2022-11-29T08:37:39.585Z,5.40
2022-11-29T08:40:16.377Z,5.31
2022-11-29T08:43:32.915Z,5.12
2022-11-29T08:46:20.615Z,5.02
2022-11-29T08:48:50.634Z,5.03
2022-11-29T08:51:23.467Z,5.14
2022-11-29T08:54:13.782Z,5.08
2022-11-29T08:59:34.229Z,5.52
2022-11-29T09:02:12.933Z,5.62
2022-11-29T09:04:51.242Z,5.51
2022-11-29T09:07:19.392Z,5.53
2022-11-29T09:10:19.893Z,5.48
2022-11-29T09:12:47.070Z,5.36
2022-11-29T09:15:18.989Z,5.32
2022-11-29T09:17:50.631Z,5.65
2022-11-29T09:20:32.830Z,5.87
2022-11-29T09:23:16.501Z,5.83
2022-11-29T09:25:52.366Z,5.40
2022-11-29T09:28:23.589Z,5.63
2022-11-29T09:30:52.834Z,5.40
2022-11-29T09:33:21.918Z,5.74
2022-11-29T09:35:50.570Z,5.46
2022-11-29T09:38:34.493Z,5.66
2022-11-29T09:41:40.323Z,5.47
2022-11-29T09:44:37.080Z,5.60
2022-11-29T09:47:44.553Z,5.55
2022-11-29T09:50:24.432Z,5.75
2022-11-29T09:53:05.109Z,5.85
2022-11-29T09:59:41.791Z,5.82
2022-11-29T10:02:56.845Z,5.79
2022-11-29T10:05:55.883Z,5.71
2022-11-29T10:08:44.838Z,5.60
2022-11-29T10:11:57.717Z,5.36
2022-11-29T10:14:35.720Z,5.49
2022-11-29T10:17:38.982Z,5.41
2022-11-29T10:20:51.183Z,5.80
2022-11-29T10:23:41.003Z,5.38
2022-11-29T10:26:09.463Z,5.67
2022-11-29T10:28:39.394Z,5.73
2022-11-29T10:31:35.540Z,5.84
2022-11-29T10:34:14.142Z,6.06
2022-11-29T10:37:04.453Z,5.67
2022-11-29T10:40:00.218Z,5.50
2022-11-29T10:42:53.932Z,5.78
2022-11-29T10:45:53.753Z,5.83
2022-11-29T10:48:47.789Z,6.16
2022-11-29T10:51:20.044Z,6.45
2022-11-29T10:53:57.574Z,6.10
2022-11-29T10:56:29.945Z,5.66
2022-11-29T10:59:10.565Z,5.80
2022-11-29T11:01:45.788Z,6.13
2022-11-29T11:04:44.722Z,6.01
2022-11-29T11:07:43.752Z,6.29
2022-11-29T11:10:55.392Z,6.29
2022-11-29T11:13:32.654Z,6.31
2022-11-29T11:16:17.456Z,6.32
2022-11-29T11:22:12.021Z,6.22
2022-11-29T11:24:48.224Z,6.35
2022-11-29T11:27:31.813Z,6.21
2022-11-29T11:30:32.204Z,6.72
2022-11-29T11:33:44.613Z,6.71
2022-11-29T11:36:44.583Z,6.73
2022-11-29T11:39:23.190Z,6.85
2022-11-29T11:42:11.323Z,6.96
2022-11-29T11:44:57.627Z,6.72
2022-11-29T11:47:46.945Z,6.91
2022-11-29T11:50:56.482Z,7.11
2022-11-29T11:53:53.716Z,6.87
2022-11-29T11:56:36.699Z,6.75
2022-11-29T12:02:03.603Z,6.44
2022-11-29T12:04:43.663Z,6.57
2022-11-29T12:10:42.639Z,6.59
2022-11-29T12:14:14.803Z,6.67
2022-11-29T12:19:35.872Z,6.88
2022-11-29T12:22:20.206Z,7.09
2022-11-29T12:25:01.353Z,7.25
2022-11-29T12:27:28.453Z,7.27
2022-11-29T12:29:56.535Z,7.39
2022-11-29T12:32:38.791Z,7.25
2022-11-29T12:35:37.002Z,7.25
2022-11-29T12:38:36.269Z,7.08
2022-11-29T12:41:15.764Z,7.06
2022-11-29T12:44:15.092Z,6.96
2022-11-29T12:46:48.438Z,6.64
2022-11-29T12:49:45.250Z,6.19
2022-11-29T12:52:30.900Z,6.42
2022-11-29T12:55:16.468Z,6.35
2022-11-29T12:57:43.627Z,6.48
2022-11-29T13:00:16.684Z,6.52
2022-11-29T13:03:07.705Z,6.59
2022-11-29T13:05:50.731Z,6.57
2022-11-29T13:08:54.564Z,6.65
2022-11-29T13:11:42.952Z,6.75
2022-11-29T13:14:43.175Z,6.76
2022-11-29T13:17:45.754Z,6.88
2022-11-29T13:20:31.314Z,6.55
2022-11-29T13:23:45.644Z,6.37
2022-11-29T13:26:14.279Z,6.25
2022-11-29T13:28:43.114Z,8.18
2022-11-29T13:31:16.080Z,6.95
2022-11-29T13:33:50.077Z,6.94
2022-11-29T13:36:23.060Z,6.62
2022-11-29T13:39:13.592Z,6.57
2022-11-29T13:42:10.739Z,6.42
2022-11-29T13:44:55.883Z,6.76
2022-11-29T13:47:23.026Z,6.52
2022-11-29T13:49:59.428Z,6.43
2022-11-29T13:52:44.919Z,6.29
2022-11-29T13:55:29.197Z,6.45
2022-11-29T13:58:22.758Z,6.51
2022-11-29T14:00:51.883Z,6.41
2022-11-29T14:03:26.380Z,6.33
2022-11-29T14:06:03.225Z,6.37
2022-11-29T14:09:17.207Z,6.17
2022-11-29T14:11:59.203Z,6.30
2022-11-29T14:14:39.275Z,6.14
2022-11-29T14:17:27.687Z,6.02
2022-11-29T14:20:23.429Z,6.15
2022-11-29T14:23:05.547Z,7.80
2022-11-29T14:26:02.225Z,7.14
2022-11-29T14:28:32.352Z,6.68
2022-11-29T14:31:02.743Z,6.75
2022-11-29T14:34:00.612Z,6.54
2022-11-29T14:36:38.258Z,6.42
2022-11-29T14:39:13.831Z,6.05
2022-11-29T14:41:49.513Z,6.06
2022-11-29T14:44:22.166Z,6.11
2022-11-29T14:46:59.529Z,6.01
2022-11-29T14:49:29.130Z,6.01
2022-11-29T14:52:28.168Z,6.03
2022-11-29T14:55:08.592Z,5.96
2022-11-29T14:57:48.031Z,5.79
2022-11-29T15:00:16.911Z,5.79
2022-11-29T15:02:52.423Z,5.69
2022-11-29T15:05:33.319Z,5.57
2022-11-29T15:08:15.285Z,5.57
2022-11-29T15:10:54.578Z,5.59
2022-11-29T15:13:29.257Z,5.61
2022-11-29T15:16:17.561Z,5.67
2022-11-29T15:19:15.049Z,5.49
2022-11-29T15:21:57.017Z,5.63
2022-11-29T15:24:28.178Z,5.58
2022-11-29T15:27:03.301Z,5.66
2022-11-29T15:29:31.541Z,5.61
2022-11-29T15:32:04.252Z,5.64
2022-11-29T15:34:51.927Z,5.58
2022-11-29T15:37:42.758Z,5.37
2022-11-29T15:40:19.130Z,5.44
2022-11-29T15:43:10.043Z,5.34
2022-11-29T15:45:39.646Z,5.24
2022-11-29T15:48:27.569Z,5.10
2022-11-29T15:51:22.700Z,5.16
2022-11-29T15:54:12.770Z,5.18
2022-11-29T15:56:47.096Z,5.06
2022-11-29T15:59:37.238Z,5.18
2022-11-29T16:02:20.710Z,5.11
2022-11-29T16:04:52.244Z,5.20
2022-11-29T16:07:22.272Z,5.18
2022-11-29T16:09:55.402Z,5.14
2022-11-29T16:12:22.555Z,5.14
2022-11-29T16:14:52.944Z,5.04
2022-11-29T16:17:21.223Z,5.07
2022-11-29T16:19:48.364Z,4.96
2022-11-29T16:22:23.974Z,5.10
2022-11-29T16:25:08.002Z,5.04
2022-11-29T16:27:36.463Z,5.00
2022-11-29T16:30:05.189Z,5.00
2022-11-29T16:32:38.094Z,4.95
2022-11-29T16:35:17.022Z,4.83
2022-11-29T16:37:46.559Z,4.94
2022-11-29T16:40:28.500Z,4.75
2022-11-29T16:43:04.519Z,4.89
2022-11-29T16:45:38.027Z,4.84
2022-11-29T16:48:29.291Z,4.86
2022-11-29T16:51:13.716Z,4.82
2022-11-29T16:53:42.917Z,5.00
2022-11-29T16:56:22.129Z,5.06
2022-11-29T16:59:24.597Z,5.07
2022-11-29T17:01:48.377Z,5.01
2022-11-29T17:04:23.484Z,5.07
2022-11-29T17:06:56.500Z,5.08
2022-11-29T17:09:27.574Z,5.11
2022-11-29T17:12:03.282Z,5.02
2022-11-29T17:14:31.909Z,5.04
2022-11-29T17:17:02.448Z,5.06
2022-11-29T17:19:30.603Z,5.12
2022-11-29T17:21:58.453Z,5.18
2022-11-29T17:24:25.538Z,4.99
2022-11-29T17:26:52.791Z,4.88
2022-11-29T17:29:19.838Z,5.03
2022-11-29T17:31:48.199Z,4.78
2022-11-29T17:34:15.413Z,4.88
2022-11-29T17:36:42.338Z,4.71
2022-11-29T17:39:09.491Z,4.80
2022-11-29T17:41:36.515Z,4.84
2022-11-29T17:44:03.841Z,4.82
2022-11-29T17:46:37.213Z,4.93
2022-11-29T17:49:07.491Z,4.96
2022-11-29T17:51:54.157Z,4.88
2022-11-29T17:54:22.502Z,4.90
2022-11-29T17:56:50.133Z,5.04
2022-11-29T17:59:17.248Z,5.06
2022-11-29T18:01:47.675Z,5.18
2022-11-29T18:04:14.760Z,5.27
2022-11-29T18:06:42.467Z,5.26
2022-11-29T18:09:11.473Z,5.24
2022-11-29T18:11:47.602Z,5.18
2022-11-29T18:14:23.071Z,5.23
2022-11-29T18:16:50.396Z,5.21
2022-11-29T18:19:21.054Z,5.23
2022-11-29T18:21:49.863Z,5.30
2022-11-29T18:24:17.535Z,5.24
2022-11-29T18:26:46.422Z,5.13
2022-11-29T18:29:13.340Z,5.05
2022-11-29T18:31:43.198Z,5.07
2022-11-29T18:34:11.838Z,5.01
2022-11-29T18:36:48.376Z,5.00
2022-11-29T18:39:17.172Z,5.09
2022-11-29T18:41:47.132Z,5.12
2022-11-29T18:44:15.977Z,5.17
2022-11-29T18:46:44.787Z,5.20
2022-11-29T18:49:17.408Z,5.19
2022-11-29T18:51:46.087Z,5.21
2022-11-29T18:54:17.957Z,5.07
2022-11-29T18:56:45.639Z,4.90
2022-11-29T18:59:17.613Z,5.11
2022-11-29T19:01:47.856Z,4.63
2022-11-29T19:04:18.197Z,4.98
2022-11-29T19:06:45.647Z,4.77
2022-11-29T19:09:15.142Z,4.67
2022-11-29T19:11:45.871Z,4.54
2022-11-29T19:14:13.737Z,4.77
2022-11-29T19:16:43.961Z,4.89
2022-11-29T19:19:11.364Z,4.97
2022-11-29T19:21:40.219Z,5.00
2022-11-29T19:24:14.360Z,4.93
2022-11-29T19:26:44.685Z,4.98
2022-11-29T19:29:12.971Z,4.86
2022-11-29T19:31:40.273Z,4.93
2022-11-29T19:34:07.309Z,4.64
2022-11-29T19:36:34.701Z,4.82
2022-11-29T19:39:02.525Z,4.67
2022-11-29T19:41:32.476Z,4.66
2022-11-29T19:44:01.456Z,4.85
2022-11-29T19:46:33.657Z,4.71
2022-11-29T19:49:01.886Z,4.73
2022-11-29T19:51:30.141Z,4.81
2022-11-29T19:53:59.872Z,4.89
2022-11-29T19:56:28.863Z,4.76
2022-11-29T19:58:56.782Z,4.77
2022-11-29T20:01:28.177Z,4.57
2022-11-29T20:03:59.003Z,4.79
2022-11-29T20:06:30.269Z,4.73
2022-11-29T20:08:58.424Z,4.73
2022-11-29T20:11:27.084Z,4.81
2022-11-29T20:13:59.455Z,4.89
2022-11-29T20:16:28.209Z,4.80
2022-11-29T20:18:56.271Z,4.91
2022-11-29T20:21:25.434Z,4.87
2022-11-29T20:23:57.801Z,4.94
2022-11-29T20:26:26.190Z,5.01
2022-11-29T20:28:53.742Z,4.94
2022-11-29T20:34:26.444Z,5.09
2022-11-29T20:52:04.342Z,5.17
2022-11-29T20:54:31.522Z,5.30
2022-11-29T21:08:43.307Z,5.25
2022-11-29T21:11:11.309Z,5.32
2022-11-29T21:13:39.303Z,5.42
2022-11-29T21:16:07.251Z,5.35
2022-11-29T21:24:58.637Z,5.23
2022-11-29T21:47:01.406Z,5.33
2022-11-29T21:52:22.260Z,5.58
2022-11-29T21:54:50.327Z,5.44
2022-11-29T21:57:17.678Z,5.61
2022-11-29T22:13:09.686Z,5.48
2022-11-29T22:15:36.755Z,5.52
2022-11-29T22:18:03.815Z,5.34
2022-11-29T22:20:30.775Z,5.43
2022-11-29T22:22:58.913Z,5.43
2022-11-29T22:25:26.150Z,5.51
2022-11-29T22:27:53.064Z,5.50
2022-11-29T22:33:34.706Z,5.50
2022-11-29T22:36:12.640Z,5.55
2022-11-29T22:38:40.893Z,5.58
2022-11-29T22:41:11.422Z,5.61
2022-11-29T22:43:40.539Z,5.63
2022-11-29T23:12:11.099Z,5.75
2022-11-29T23:14:38.164Z,5.72
2022-11-29T23:17:05.289Z,5.67
2022-11-29T23:19:32.489Z,5.59
2022-11-29T23:21:59.643Z,5.52
2022-11-29T23:24:26.801Z,5.62
2022-11-29T23:26:53.806Z,5.61
2022-11-29T23:29:20.944Z,5.57
2022-11-29T23:31:48.413Z,5.58
2022-11-29T23:34:15.541Z,5.61
